sensor_id;sensor_type;location;lat;lon;timestamp;pressure;altitude;pressure_sealevel;temperature;humidity
80851;BME280;70268;50.292;6.666;2023-07-16T00:01:02;96061.94;;;23.69;57.36
80851;BME280;70268;50.292;6.666;2023-07-16T00:06:00;96053.03;;;23.63;57.54
80851;BME280;70268;50.292;6.666;2023-07-16T00:08:28;96061.38;;;23.60;57.64
80851;BME280;70268;50.292;6.666;2023-07-16T00:10:57;96052.03;;;23.64;57.17
80851;BME280;70268;50.292;6.666;2023-07-16T00:13:26;96051.88;;;23.59;57.56
80851;BME280;70268;50.292;6.666;2023-07-16T00:18:22;96065.06;;;23.59;57.34
80851;BME280;70268;50.292;6.666;2023-07-16T00:20:52;96051.03;;;23.58;57.64
80851;BME280;70268;50.292;6.666;2023-07-16T00:23:20;96059.38;;;23.55;57.79
80851;BME280;70268;50.292;6.666;2023-07-16T00:25:49;96057.53;;;23.62;57.60
80851;BME280;70268;50.292;6.666;2023-07-16T00:28:18;96060.00;;;23.57;57.52
80851;BME280;70268;50.292;6.666;2023-07-16T00:30:46;96060.63;;;23.53;57.72
80851;BME280;70268;50.292;6.666;2023-07-16T00:33:15;96065.47;;;23.56;57.60
80851;BME280;70268;50.292;6.666;2023-07-16T00:35:47;96075.81;;;23.57;57.59
80851;BME280;70268;50.292;6.666;2023-07-16T00:38:18;96069.50;;;23.58;57.60
80851;BME280;70268;50.292;6.666;2023-07-16T00:40:48;96077.41;;;23.58;57.45
80851;BME280;70268;50.292;6.666;2023-07-16T00:43:17;96073.97;;;23.58;57.66
80851;BME280;70268;50.292;6.666;2023-07-16T00:45:46;96081.09;;;23.57;57.70
80851;BME280;70268;50.292;6.666;2023-07-16T00:48:15;96080.94;;;23.45;57.88
80851;BME280;70268;50.292;6.666;2023-07-16T00:50:44;96073.00;;;23.52;57.64
80851;BME280;70268;50.292;6.666;2023-07-16T00:53:13;96081.53;;;23.54;57.54
80851;BME280;70268;50.292;6.666;2023-07-16T00:55:43;96078.06;;;23.54;57.68
80851;BME280;70268;50.292;6.666;2023-07-16T00:58:12;96080.72;;;23.47;57.46
80851;BME280;70268;50.292;6.666;2023-07-16T01:00:41;96075.66;;;23.45;57.81
80851;BME280;70268;50.292;6.666;2023-07-16T01:03:12;96083.34;;;23.40;57.90
80851;BME280;70268;50.292;6.666;2023-07-16T01:05:47;96088.03;;;23.52;57.67
80851;BME280;70268;50.292;6.666;2023-07-16T01:08:25;96091.72;;;23.44;57.82
80851;BME280;70268;50.292;6.666;2023-07-16T01:10:57;96093.53;;;23.43;57.76
80851;BME280;70268;50.292;6.666;2023-07-16T01:13:27;96092.50;;;23.44;57.88
80851;BME280;70268;50.292;6.666;2023-07-16T01:15:56;96080.91;;;23.39;57.58
80851;BME280;70268;50.292;6.666;2023-07-16T01:18:24;96089.88;;;23.44;57.93
80851;BME280;70268;50.292;6.666;2023-07-16T01:20:53;96091.13;;;23.42;57.82
80851;BME280;70268;50.292;6.666;2023-07-16T01:23:54;96090.50;;;23.33;57.71
80851;BME280;70268;50.292;6.666;2023-07-16T01:26:36;96094.09;;;23.52;57.63
80851;BME280;70268;50.292;6.666;2023-07-16T01:29:28;96099.84;;;23.42;57.73
80851;BME280;70268;50.292;6.666;2023-07-16T01:31:59;96099.81;;;23.36;57.87
80851;BME280;70268;50.292;6.666;2023-07-16T01:34:30;96099.00;;;23.35;58.17
80851;BME280;70268;50.292;6.666;2023-07-16T01:37:00;96101.22;;;23.38;57.90
80851;BME280;70268;50.292;6.666;2023-07-16T01:39:30;96107.94;;;23.41;58.08
80851;BME280;70268;50.292;6.666;2023-07-16T01:42:00;96108.75;;;23.28;57.98
80851;BME280;70268;50.292;6.666;2023-07-16T01:44:30;96104.06;;;23.37;57.95
80851;BME280;70268;50.292;6.666;2023-07-16T01:47:05;96112.81;;;23.44;58.05
80851;BME280;70268;50.292;6.666;2023-07-16T01:49:36;96116.06;;;23.39;57.86
80851;BME280;70268;50.292;6.666;2023-07-16T01:52:06;96118.28;;;23.36;58.06
80851;BME280;70268;50.292;6.666;2023-07-16T01:54:34;96123.97;;;23.33;58.06
80851;BME280;70268;50.292;6.666;2023-07-16T01:57:03;96123.34;;;23.37;58.17
80851;BME280;70268;50.292;6.666;2023-07-16T01:59:34;96115.63;;;23.36;58.24
80851;BME280;70268;50.292;6.666;2023-07-16T02:02:04;96118.09;;;23.31;58.32
80851;BME280;70268;50.292;6.666;2023-07-16T02:04:32;96108.75;;;23.28;58.52
80851;BME280;70268;50.292;6.666;2023-07-16T02:07:01;96112.38;;;23.40;58.31
80851;BME280;70268;50.292;6.666;2023-07-16T02:09:30;96111.41;;;23.35;58.57
80851;BME280;70268;50.292;6.666;2023-07-16T02:11:58;96101.84;;;23.34;58.48
80851;BME280;70268;50.292;6.666;2023-07-16T02:14:27;96112.00;;;23.37;58.55
80851;BME280;70268;50.292;6.666;2023-07-16T02:16:58;96113.63;;;23.31;58.68
80851;BME280;70268;50.292;6.666;2023-07-16T02:19:27;96106.53;;;23.32;58.65
80851;BME280;70268;50.292;6.666;2023-07-16T02:21:55;96109.34;;;23.37;58.49
80851;BME280;70268;50.292;6.666;2023-07-16T02:24:24;96110.78;;;23.33;58.68
80851;BME280;70268;50.292;6.666;2023-07-16T02:26:52;96119.91;;;23.37;58.35
80851;BME280;70268;50.292;6.666;2023-07-16T02:29:21;96118.53;;;23.21;58.63
80851;BME280;70268;50.292;6.666;2023-07-16T02:31:50;96131.31;;;23.17;58.80
80851;BME280;70268;50.292;6.666;2023-07-16T02:34:20;96122.38;;;23.25;58.67
80851;BME280;70268;50.292;6.666;2023-07-16T02:36:48;96123.41;;;23.04;59.51
80851;BME280;70268;50.292;6.666;2023-07-16T02:39:16;96132.31;;;23.23;59.26
80851;BME280;70268;50.292;6.666;2023-07-16T02:41:44;96132.16;;;22.98;57.64
80851;BME280;70268;50.292;6.666;2023-07-16T02:44:13;96129.28;;;23.13;59.34
80851;BME280;70268;50.292;6.666;2023-07-16T02:46:41;96132.56;;;23.15;59.23
80851;BME280;70268;50.292;6.666;2023-07-16T02:49:11;96138.81;;;23.07;58.04
80851;BME280;70268;50.292;6.666;2023-07-16T02:51:41;96138.03;;;22.93;59.79
80851;BME280;70268;50.292;6.666;2023-07-16T02:54:10;96141.06;;;23.10;59.32
80851;BME280;70268;50.292;6.666;2023-07-16T02:56:38;96145.72;;;23.08;59.10
80851;BME280;70268;50.292;6.666;2023-07-16T02:59:07;96143.50;;;23.05;59.14
80851;BME280;70268;50.292;6.666;2023-07-16T03:01:36;96147.75;;;23.13;59.14
80851;BME280;70268;50.292;6.666;2023-07-16T03:04:04;96143.09;;;22.95;59.59
80851;BME280;70268;50.292;6.666;2023-07-16T03:06:33;96147.78;;;23.06;59.45
80851;BME280;70268;50.292;6.666;2023-07-16T03:09:03;96151.81;;;23.08;58.77
80851;BME280;70268;50.292;6.666;2023-07-16T03:11:32;96159.16;;;23.00;59.60
80851;BME280;70268;50.292;6.666;2023-07-16T03:14:00;96164.97;;;23.22;59.09
80851;BME280;70268;50.292;6.666;2023-07-16T03:16:29;96166.63;;;23.16;59.21
80851;BME280;70268;50.292;6.666;2023-07-16T03:18:57;96164.00;;;23.03;59.52
80851;BME280;70268;50.292;6.666;2023-07-16T03:21:29;96165.25;;;22.93;59.53
80851;BME280;70268;50.292;6.666;2023-07-16T03:23:58;96165.63;;;22.97;59.62
80851;BME280;70268;50.292;6.666;2023-07-16T03:26:28;96168.66;;;23.01;59.32
80851;BME280;70268;50.292;6.666;2023-07-16T03:28:57;96155.06;;;23.04;59.50
80851;BME280;70268;50.292;6.666;2023-07-16T03:31:27;96166.03;;;22.74;59.35
80851;BME280;70268;50.292;6.666;2023-07-16T03:33:57;96170.50;;;23.00;59.65
80851;BME280;70268;50.292;6.666;2023-07-16T03:36:29;96168.66;;;23.07;59.43
80851;BME280;70268;50.292;6.666;2023-07-16T03:38:57;96173.16;;;22.93;58.52
80851;BME280;70268;50.292;6.666;2023-07-16T03:41:27;96169.28;;;23.03;59.59
80851;BME280;70268;50.292;6.666;2023-07-16T03:43:56;96179.84;;;22.83;58.75
80851;BME280;70268;50.292;6.666;2023-07-16T03:46:24;96182.88;;;23.00;59.64
80851;BME280;70268;50.292;6.666;2023-07-16T03:48:53;96182.25;;;22.91;59.64
80851;BME280;70268;50.292;6.666;2023-07-16T03:51:22;96185.91;;;22.77;57.92
80851;BME280;70268;50.292;6.666;2023-07-16T03:53:53;96196.66;;;22.88;59.46
80851;BME280;70268;50.292;6.666;2023-07-16T03:56:21;96194.44;;;22.92;59.35
80851;BME280;70268;50.292;6.666;2023-07-16T03:58:51;96203.53;;;22.96;58.13
80851;BME280;70268;50.292;6.666;2023-07-16T04:01:20;96194.66;;;22.90;59.83
80851;BME280;70268;50.292;6.666;2023-07-16T04:03:48;96196.06;;;22.80;59.25
80851;BME280;70268;50.292;6.666;2023-07-16T04:06:17;96201.72;;;22.77;58.44
80851;BME280;70268;50.292;6.666;2023-07-16T04:08:46;96203.75;;;22.74;60.10
80851;BME280;70268;50.292;6.666;2023-07-16T04:11:14;96205.19;;;22.97;59.36
80851;BME280;70268;50.292;6.666;2023-07-16T04:13:43;96206.56;;;22.60;60.25
80851;BME280;70268;50.292;6.666;2023-07-16T04:16:13;96214.31;;;22.81;59.77
80851;BME280;70268;50.292;6.666;2023-07-16T04:18:41;96211.06;;;22.92;59.27
80851;BME280;70268;50.292;6.666;2023-07-16T04:21:10;96211.97;;;22.45;59.34
80851;BME280;70268;50.292;6.666;2023-07-16T04:23:39;96218.91;;;22.52;57.68
80851;BME280;70268;50.292;6.666;2023-07-16T04:26:07;96216.13;;;22.81;60.11
80851;BME280;70268;50.292;6.666;2023-07-16T04:28:36;96215.94;;;22.89;59.46
80851;BME280;70268;50.292;6.666;2023-07-16T04:31:06;96222.41;;;22.80;59.92
80851;BME280;70268;50.292;6.666;2023-07-16T04:33:36;96229.25;;;22.54;59.42
80851;BME280;70268;50.292;6.666;2023-07-16T04:36:05;96218.94;;;22.79;59.82
80851;BME280;70268;50.292;6.666;2023-07-16T04:38:33;96224.84;;;22.88;59.63
80851;BME280;70268;50.292;6.666;2023-07-16T04:41:02;96227.88;;;22.91;58.55
80851;BME280;70268;50.292;6.666;2023-07-16T04:43:31;96228.78;;;22.30;60.52
80851;BME280;70268;50.292;6.666;2023-07-16T04:45:59;96233.13;;;22.78;59.56
80851;BME280;70268;50.292;6.666;2023-07-16T04:48:28;96232.75;;;23.01;59.16
80851;BME280;70268;50.292;6.666;2023-07-16T04:50:58;96237.00;;;23.02;58.78
80851;BME280;70268;50.292;6.666;2023-07-16T04:53:26;96232.13;;;22.99;57.86
80851;BME280;70268;50.292;6.666;2023-07-16T04:55:55;96242.81;;;22.57;55.02
80851;BME280;70268;50.292;6.666;2023-07-16T04:58:24;96242.28;;;22.14;54.49
80851;BME280;70268;50.292;6.666;2023-07-16T05:00:52;96246.50;;;22.01;53.78
80851;BME280;70268;50.292;6.666;2023-07-16T05:03:21;96246.47;;;21.95;53.53
80851;BME280;70268;50.292;6.666;2023-07-16T05:05:52;96250.31;;;21.99;53.47
80851;BME280;70268;50.292;6.666;2023-07-16T05:08:23;96252.59;;;22.09;53.23
80851;BME280;70268;50.292;6.666;2023-07-16T05:10:52;96259.97;;;22.33;52.84
80851;BME280;70268;50.292;6.666;2023-07-16T05:13:20;96253.22;;;22.11;51.96
80851;BME280;70268;50.292;6.666;2023-07-16T05:15:49;96249.84;;;22.30;52.72
80851;BME280;70268;50.292;6.666;2023-07-16T05:18:17;96263.34;;;21.72;52.59
80851;BME280;70268;50.292;6.666;2023-07-16T05:20:46;96254.59;;;22.07;52.71
80851;BME280;70268;50.292;6.666;2023-07-16T05:23:15;96256.22;;;22.01;52.01
80851;BME280;70268;50.292;6.666;2023-07-16T05:25:49;96267.38;;;21.75;53.17
80851;BME280;70268;50.292;6.666;2023-07-16T05:28:18;96269.09;;;21.54;52.99
80851;BME280;70268;50.292;6.666;2023-07-16T05:30:47;96272.81;;;21.95;52.26
80851;BME280;70268;50.292;6.666;2023-07-16T05:33:16;96271.03;;;21.45;52.37
80851;BME280;70268;50.292;6.666;2023-07-16T05:35:49;96267.72;;;21.93;52.14
80851;BME280;70268;50.292;6.666;2023-07-16T05:38:18;96266.81;;;21.79;52.16
80851;BME280;70268;50.292;6.666;2023-07-16T05:40:48;96271.47;;;21.77;51.98
80851;BME280;70268;50.292;6.666;2023-07-16T05:43:16;96274.06;;;22.06;52.34
80851;BME280;70268;50.292;6.666;2023-07-16T05:45:45;96281.19;;;22.12;52.38
80851;BME280;70268;50.292;6.666;2023-07-16T05:48:13;96289.50;;;21.52;52.47
80851;BME280;70268;50.292;6.666;2023-07-16T05:50:43;96281.84;;;21.57;53.12
80851;BME280;70268;50.292;6.666;2023-07-16T05:53:12;96286.28;;;21.78;52.70
80851;BME280;70268;50.292;6.666;2023-07-16T05:55:41;96296.72;;;22.00;52.38
80851;BME280;70268;50.292;6.666;2023-07-16T05:58:12;96293.66;;;21.96;51.76
80851;BME280;70268;50.292;6.666;2023-07-16T06:00:40;96294.53;;;22.10;51.86
80851;BME280;70268;50.292;6.666;2023-07-16T06:03:09;96297.94;;;22.04;52.06
80851;BME280;70268;50.292;6.666;2023-07-16T06:05:38;96299.56;;;22.05;51.82
80851;BME280;70268;50.292;6.666;2023-07-16T06:08:06;96303.03;;;22.06;51.84
80851;BME280;70268;50.292;6.666;2023-07-16T06:10:35;96301.78;;;22.01;51.38
80851;BME280;70268;50.292;6.666;2023-07-16T06:13:04;96297.63;;;21.85;51.24
80851;BME280;70268;50.292;6.666;2023-07-16T06:15:34;96298.31;;;21.66;51.72
80851;BME280;70268;50.292;6.666;2023-07-16T06:18:02;96298.28;;;21.94;51.27
80851;BME280;70268;50.292;6.666;2023-07-16T06:20:31;96301.91;;;21.86;51.34
80851;BME280;70268;50.292;6.666;2023-07-16T06:23:00;96312.69;;;21.92;51.32
80851;BME280;70268;50.292;6.666;2023-07-16T06:25:28;96299.31;;;21.65;51.67
80851;BME280;70268;50.292;6.666;2023-07-16T06:27:57;96306.63;;;21.69;51.34
80851;BME280;70268;50.292;6.666;2023-07-16T06:30:25;96306.16;;;21.88;51.10
80851;BME280;70268;50.292;6.666;2023-07-16T06:32:55;96309.31;;;21.48;51.63
80851;BME280;70268;50.292;6.666;2023-07-16T06:35:24;96304.22;;;21.75;51.20
80851;BME280;70268;50.292;6.666;2023-07-16T06:37:53;96314.22;;;21.58;52.02
80851;BME280;70268;50.292;6.666;2023-07-16T06:40:24;96317.31;;;21.61;50.47
80851;BME280;70268;50.292;6.666;2023-07-16T06:42:52;96322.28;;;21.78;50.52
80851;BME280;70268;50.292;6.666;2023-07-16T06:45:21;96326.50;;;21.72;51.13
80851;BME280;70268;50.292;6.666;2023-07-16T06:47:50;96328.88;;;21.67;51.05
80851;BME280;70268;50.292;6.666;2023-07-16T06:50:20;96325.56;;;21.80;51.41
80851;BME280;70268;50.292;6.666;2023-07-16T06:52:48;96318.16;;;21.68;51.38
80851;BME280;70268;50.292;6.666;2023-07-16T06:55:17;96329.19;;;21.79;51.07
80851;BME280;70268;50.292;6.666;2023-07-16T06:57:46;96329.06;;;21.65;50.97
80851;BME280;70268;50.292;6.666;2023-07-16T07:00:14;96323.84;;;21.44;50.75
80851;BME280;70268;50.292;6.666;2023-07-16T07:02:43;96328.03;;;21.60;51.53
80851;BME280;70268;50.292;6.666;2023-07-16T07:05:12;96325.47;;;21.73;50.48
80851;BME280;70268;50.292;6.666;2023-07-16T07:07:42;96332.31;;;21.67;50.12
80851;BME280;70268;50.292;6.666;2023-07-16T07:10:12;96335.44;;;21.78;50.33
80851;BME280;70268;50.292;6.666;2023-07-16T07:12:41;96341.75;;;21.83;50.45
80851;BME280;70268;50.292;6.666;2023-07-16T07:15:10;96338.41;;;21.68;49.78
80851;BME280;70268;50.292;6.666;2023-07-16T07:17:39;96346.06;;;21.41;50.37
80851;BME280;70268;50.292;6.666;2023-07-16T07:20:11;96341.84;;;21.40;50.40
80851;BME280;70268;50.292;6.666;2023-07-16T07:22:40;96336.13;;;21.15;50.33
80851;BME280;70268;50.292;6.666;2023-07-16T07:25:10;96344.34;;;21.55;50.86
80851;BME280;70268;50.292;6.666;2023-07-16T07:27:39;96344.41;;;21.62;50.63
80851;BME280;70268;50.292;6.666;2023-07-16T07:30:08;96348.03;;;21.82;50.10
80851;BME280;70268;50.292;6.666;2023-07-16T07:32:37;96355.56;;;21.64;50.27
80851;BME280;70268;50.292;6.666;2023-07-16T07:35:06;96351.13;;;21.64;50.49
80851;BME280;70268;50.292;6.666;2023-07-16T07:37:35;96344.63;;;21.60;50.58
80851;BME280;70268;50.292;6.666;2023-07-16T07:40:04;96341.88;;;21.47;50.43
80851;BME280;70268;50.292;6.666;2023-07-16T07:42:34;96346.19;;;21.55;50.76
80851;BME280;70268;50.292;6.666;2023-07-16T07:45:04;96345.91;;;21.71;50.56
80851;BME280;70268;50.292;6.666;2023-07-16T07:47:33;96350.94;;;21.66;50.26
80851;BME280;70268;50.292;6.666;2023-07-16T07:50:02;96357.41;;;21.70;50.14
80851;BME280;70268;50.292;6.666;2023-07-16T07:52:30;96364.00;;;21.81;49.88
80851;BME280;70268;50.292;6.666;2023-07-16T07:54:59;96368.09;;;21.62;49.58
80851;BME280;70268;50.292;6.666;2023-07-16T07:57:27;96360.63;;;21.65;49.69
80851;BME280;70268;50.292;6.666;2023-07-16T07:59:57;96371.50;;;21.56;49.15
80851;BME280;70268;50.292;6.666;2023-07-16T08:02:26;96376.13;;;21.54;50.07
80851;BME280;70268;50.292;6.666;2023-07-16T08:04:55;96367.72;;;21.65;49.83
80851;BME280;70268;50.292;6.666;2023-07-16T08:07:24;96360.88;;;21.71;49.54
80851;BME280;70268;50.292;6.666;2023-07-16T08:09:53;96377.13;;;21.52;49.04
80851;BME280;70268;50.292;6.666;2023-07-16T08:12:22;96364.91;;;21.66;49.38
80851;BME280;70268;50.292;6.666;2023-07-16T08:14:50;96369.75;;;21.63;48.63
80851;BME280;70268;50.292;6.666;2023-07-16T08:17:20;96371.53;;;21.62;49.05
80851;BME280;70268;50.292;6.666;2023-07-16T08:19:50;96373.50;;;21.75;49.01
80851;BME280;70268;50.292;6.666;2023-07-16T08:22:19;96375.38;;;21.60;48.47
80851;BME280;70268;50.292;6.666;2023-07-16T08:24:47;96362.03;;;21.61;48.57
80851;BME280;70268;50.292;6.666;2023-07-16T08:27:16;96368.13;;;21.68;48.36
80851;BME280;70268;50.292;6.666;2023-07-16T08:29:46;96373.56;;;21.60;48.16
80851;BME280;70268;50.292;6.666;2023-07-16T08:32:14;96372.75;;;21.60;48.75
80851;BME280;70268;50.292;6.666;2023-07-16T08:34:44;96375.94;;;21.55;49.28
80851;BME280;70268;50.292;6.666;2023-07-16T08:37:13;96374.81;;;21.64;48.82
80851;BME280;70268;50.292;6.666;2023-07-16T08:39:42;96379.88;;;21.88;47.71
80851;BME280;70268;50.292;6.666;2023-07-16T08:42:10;96372.09;;;21.79;47.51
80851;BME280;70268;50.292;6.666;2023-07-16T08:44:39;96374.16;;;21.62;47.76
80851;BME280;70268;50.292;6.666;2023-07-16T08:47:08;96388.78;;;21.65;47.83
80851;BME280;70268;50.292;6.666;2023-07-16T08:49:39;96380.50;;;21.68;48.10
80851;BME280;70268;50.292;6.666;2023-07-16T08:52:10;96385.00;;;21.74;48.07
80851;BME280;70268;50.292;6.666;2023-07-16T08:54:39;96391.38;;;21.86;47.88
80851;BME280;70268;50.292;6.666;2023-07-16T08:57:08;96383.34;;;21.73;47.49
80851;BME280;70268;50.292;6.666;2023-07-16T08:59:37;96383.16;;;21.75;48.43
80851;BME280;70268;50.292;6.666;2023-07-16T09:02:06;96399.06;;;21.81;48.26
80851;BME280;70268;50.292;6.666;2023-07-16T09:04:35;96388.38;;;21.68;48.06
80851;BME280;70268;50.292;6.666;2023-07-16T09:07:04;96382.34;;;21.74;48.52
80851;BME280;70268;50.292;6.666;2023-07-16T09:09:34;96399.72;;;21.68;48.61
80851;BME280;70268;50.292;6.666;2023-07-16T09:12:03;96388.72;;;21.80;48.02
80851;BME280;70268;50.292;6.666;2023-07-16T09:14:31;96396.25;;;21.90;47.01
80851;BME280;70268;50.292;6.666;2023-07-16T09:17:02;96395.47;;;21.89;47.05
80851;BME280;70268;50.292;6.666;2023-07-16T09:19:32;96396.63;;;21.80;48.02
80851;BME280;70268;50.292;6.666;2023-07-16T09:22:00;96411.25;;;21.89;47.25
80851;BME280;70268;50.292;6.666;2023-07-16T09:24:29;96403.78;;;21.93;47.57
80851;BME280;70268;50.292;6.666;2023-07-16T09:26:59;96396.94;;;21.98;47.15
80851;BME280;70268;50.292;6.666;2023-07-16T09:29:29;96395.69;;;21.94;46.52
80851;BME280;70268;50.292;6.666;2023-07-16T09:31:59;96406.91;;;22.03;46.38
80851;BME280;70268;50.292;6.666;2023-07-16T09:34:30;96404.44;;;22.01;46.32
80851;BME280;70268;50.292;6.666;2023-07-16T09:37:00;96402.00;;;22.00;46.32
80851;BME280;70268;50.292;6.666;2023-07-16T09:39:29;96400.75;;;21.96;47.03
80851;BME280;70268;50.292;6.666;2023-07-16T09:42:01;96397.31;;;21.95;47.51
80851;BME280;70268;50.292;6.666;2023-07-16T09:44:30;96404.88;;;22.05;46.74
80851;BME280;70268;50.292;6.666;2023-07-16T09:46:59;96400.38;;;21.99;47.02
80851;BME280;70268;50.292;6.666;2023-07-16T09:49:28;96414.38;;;21.99;47.30
80851;BME280;70268;50.292;6.666;2023-07-16T09:51:57;96411.53;;;22.01;47.09
80851;BME280;70268;50.292;6.666;2023-07-16T09:54:27;96404.84;;;21.98;47.25
80851;BME280;70268;50.292;6.666;2023-07-16T09:57:00;96401.44;;;22.04;47.11
80851;BME280;70268;50.292;6.666;2023-07-16T09:59:31;96409.34;;;22.04;46.86
80851;BME280;70268;50.292;6.666;2023-07-16T10:02:01;96401.63;;;22.03;47.47
80851;BME280;70268;50.292;6.666;2023-07-16T10:04:37;96410.59;;;22.09;46.58
80851;BME280;70268;50.292;6.666;2023-07-16T10:07:07;96416.66;;;22.09;47.05
80851;BME280;70268;50.292;6.666;2023-07-16T10:09:51;96426.56;;;22.07;47.22
80851;BME280;70268;50.292;6.666;2023-07-16T10:12:23;96418.03;;;22.05;47.60
80851;BME280;70268;50.292;6.666;2023-07-16T10:14:53;96427.59;;;22.13;47.78
80851;BME280;70268;50.292;6.666;2023-07-16T10:17:24;96427.78;;;22.11;46.93
80851;BME280;70268;50.292;6.666;2023-07-16T10:19:57;96426.00;;;22.12;47.43
80851;BME280;70268;50.292;6.666;2023-07-16T10:22:34;96420.16;;;22.16;46.96
80851;BME280;70268;50.292;6.666;2023-07-16T10:25:07;96425.63;;;22.15;47.38
80851;BME280;70268;50.292;6.666;2023-07-16T10:27:38;96415.47;;;22.12;46.95
80851;BME280;70268;50.292;6.666;2023-07-16T10:30:07;96416.47;;;22.11;47.37
80851;BME280;70268;50.292;6.666;2023-07-16T10:32:36;96414.88;;;22.16;47.30
80851;BME280;70268;50.292;6.666;2023-07-16T10:35:07;96427.47;;;22.21;47.07
80851;BME280;70268;50.292;6.666;2023-07-16T10:37:37;96412.66;;;22.20;47.46
80851;BME280;70268;50.292;6.666;2023-07-16T10:40:10;96425.63;;;22.21;46.89
80851;BME280;70268;50.292;6.666;2023-07-16T10:42:42;96422.00;;;22.22;47.08
80851;BME280;70268;50.292;6.666;2023-07-16T10:45:11;96421.63;;;22.26;47.00
80851;BME280;70268;50.292;6.666;2023-07-16T10:47:51;96422.00;;;22.22;47.05
80851;BME280;70268;50.292;6.666;2023-07-16T10:50:21;96421.63;;;22.26;45.91
80851;BME280;70268;50.292;6.666;2023-07-16T10:52:51;96417.03;;;22.34;46.80
80851;BME280;70268;50.292;6.666;2023-07-16T10:55:21;96426.53;;;22.35;46.70
80851;BME280;70268;50.292;6.666;2023-07-16T10:57:51;96413.13;;;22.30;46.40
80851;BME280;70268;50.292;6.666;2023-07-16T11:00:21;96418.41;;;22.30;46.87
80851;BME280;70268;50.292;6.666;2023-07-16T11:02:50;96430.88;;;22.15;45.57
80851;BME280;70268;50.292;6.666;2023-07-16T11:05:19;96421.94;;;22.16;45.74
80851;BME280;70268;50.292;6.666;2023-07-16T11:07:49;96417.16;;;22.26;45.85
80851;BME280;70268;50.292;6.666;2023-07-16T11:10:23;96415.97;;;22.29;46.59
80851;BME280;70268;50.292;6.666;2023-07-16T11:12:53;96419.78;;;22.26;46.72
80851;BME280;70268;50.292;6.666;2023-07-16T11:15:30;96426.50;;;22.29;46.41
80851;BME280;70268;50.292;6.666;2023-07-16T11:17:59;96416.34;;;22.26;45.62
80851;BME280;70268;50.292;6.666;2023-07-16T11:20:28;96420.03;;;22.31;45.58
80851;BME280;70268;50.292;6.666;2023-07-16T11:22:58;96420.47;;;22.35;46.04
80851;BME280;70268;50.292;6.666;2023-07-16T11:25:28;96422.72;;;22.38;46.22
80851;BME280;70268;50.292;6.666;2023-07-16T11:28:00;96419.28;;;22.37;46.12
80851;BME280;70268;50.292;6.666;2023-07-16T11:30:29;96416.19;;;22.34;46.26
80851;BME280;70268;50.292;6.666;2023-07-16T11:32:58;96433.03;;;22.33;46.25
80851;BME280;70268;50.292;6.666;2023-07-16T11:35:27;96440.09;;;22.32;45.42
80851;BME280;70268;50.292;6.666;2023-07-16T11:37:56;96434.41;;;22.29;45.60
80851;BME280;70268;50.292;6.666;2023-07-16T11:40:24;96438.91;;;22.35;45.45
80851;BME280;70268;50.292;6.666;2023-07-16T11:42:53;96438.31;;;22.39;45.84
80851;BME280;70268;50.292;6.666;2023-07-16T11:45:25;96439.94;;;22.40;45.43
80851;BME280;70268;50.292;6.666;2023-07-16T11:47:54;96440.38;;;22.44;45.73
80851;BME280;70268;50.292;6.666;2023-07-16T11:50:23;96435.91;;;22.45;45.94
80851;BME280;70268;50.292;6.666;2023-07-16T11:52:52;96431.06;;;22.48;45.74
80851;BME280;70268;50.292;6.666;2023-07-16T11:55:21;96449.72;;;22.47;45.15
80851;BME280;70268;50.292;6.666;2023-07-16T11:57:49;96436.94;;;22.44;45.23
80851;BME280;70268;50.292;6.666;2023-07-16T12:00:18;96435.91;;;22.45;45.69
80851;BME280;70268;50.292;6.666;2023-07-16T12:02:48;96431.88;;;22.49;45.94
80851;BME280;70268;50.292;6.666;2023-07-16T12:05:20;96441.16;;;22.45;45.66
80851;BME280;70268;50.292;6.666;2023-07-16T12:08:08;96437.16;;;22.49;45.62
80851;BME280;70268;50.292;6.666;2023-07-16T12:10:41;96454.16;;;22.46;45.53
80851;BME280;70268;50.292;6.666;2023-07-16T12:13:10;96440.38;;;22.44;46.21
80851;BME280;70268;50.292;6.666;2023-07-16T12:15:38;96431.88;;;22.49;45.79
80851;BME280;70268;50.292;6.666;2023-07-16T12:18:08;96437.16;;;22.49;45.73
80851;BME280;70268;50.292;6.666;2023-07-16T12:20:37;96432.06;;;22.47;45.22
80851;BME280;70268;50.292;6.666;2023-07-16T12:23:07;96438.78;;;22.50;45.39
80851;BME280;70268;50.292;6.666;2023-07-16T12:25:36;96432.31;;;22.52;46.06
80851;BME280;70268;50.292;6.666;2023-07-16T12:28:05;96434.38;;;22.57;46.06
80851;BME280;70268;50.292;6.666;2023-07-16T12:30:33;96438.25;;;22.61;45.48
80851;BME280;70268;50.292;6.666;2023-07-16T12:33:02;96444.34;;;22.62;45.26
80851;BME280;70268;50.292;6.666;2023-07-16T12:35:33;96447.59;;;22.64;45.42
80851;BME280;70268;50.292;6.666;2023-07-16T12:38:01;96434.44;;;22.64;45.26
80851;BME280;70268;50.292;6.666;2023-07-16T12:40:30;96438.50;;;22.66;45.34
80851;BME280;70268;50.292;6.666;2023-07-16T12:42:59;96429.56;;;22.67;45.55
80851;BME280;70268;50.292;6.666;2023-07-16T12:45:27;96437.47;;;22.67;45.55
80851;BME280;70268;50.292;6.666;2023-07-16T12:47:56;96433.44;;;22.71;45.26
80851;BME280;70268;50.292;6.666;2023-07-16T12:50:25;96438.72;;;22.71;45.46
80851;BME280;70268;50.292;6.666;2023-07-16T12:52:57;96446.63;;;22.71;45.57
80851;BME280;70268;50.292;6.666;2023-07-16T12:55:26;96437.28;;;22.69;45.60
80851;BME280;70268;50.292;6.666;2023-07-16T12:57:54;96439.72;;;22.70;45.56
80851;BME280;70268;50.292;6.666;2023-07-16T13:00:23;96443.19;;;22.71;45.68
80851;BME280;70268;50.292;6.666;2023-07-16T13:02:52;96443.19;;;22.71;45.65
80851;BME280;70268;50.292;6.666;2023-07-16T13:05:21;96441.34;;;22.71;45.73
80851;BME280;70268;50.292;6.666;2023-07-16T13:07:49;96447.09;;;22.82;47.55
80851;BME280;70268;50.292;6.666;2023-07-16T13:10:20;96452.16;;;22.83;47.47
80851;BME280;70268;50.292;6.666;2023-07-16T13:12:50;96458.81;;;22.79;47.19
80851;BME280;70268;50.292;6.666;2023-07-16T13:15:19;96453.56;;;22.79;47.11
80851;BME280;70268;50.292;6.666;2023-07-16T13:17:48;96452.09;;;22.77;47.67